createdAt,value
2022-11-07T00:03:31.860Z,20.03
2022-11-07T00:08:34.354Z,19.57
2022-11-07T00:13:36.909Z,20.07
2022-11-07T00:18:39.363Z,18.63
2022-11-07T00:23:42.580Z,17.03
2022-11-07T00:28:45.344Z,18.03
2022-11-07T00:33:47.784Z,17.10
2022-11-07T00:38:50.490Z,19.73
2022-11-07T00:43:53.107Z,19.50
2022-11-07T00:48:55.763Z,17.60
2022-11-07T00:53:58.139Z,19.77
2022-11-07T00:59:00.989Z,19.33
2022-11-07T01:04:22.024Z,18.63
2022-11-07T01:09:24.457Z,20.03
2022-11-07T01:14:26.842Z,21.07
2022-11-07T01:19:29.215Z,23.07
2022-11-07T01:24:31.723Z,21.83
2022-11-07T01:29:34.145Z,24.20
2022-11-07T01:34:36.602Z,23.07
2022-11-07T01:39:39.170Z,22.80
2022-11-07T01:44:41.494Z,21.87
2022-11-07T01:49:44.624Z,22.30
2022-11-07T01:55:10.899Z,21.97
2022-11-07T02:00:16.699Z,24.03
2022-11-07T02:05:28.512Z,23.07
2022-11-07T02:10:34.670Z,27.57
2022-11-07T02:15:37.272Z,27.17
2022-11-07T02:20:39.832Z,28.40
2022-11-07T02:25:42.357Z,27.90
2022-11-07T02:30:44.922Z,27.87
2022-11-07T02:35:49.406Z,27.77
2022-11-07T02:40:56.991Z,27.40
2022-11-07T02:46:02.500Z,28.83
2022-11-07T02:51:05.304Z,32.17
2022-11-07T02:56:08.331Z,28.83
2022-11-07T03:01:12.414Z,30.50
2022-11-07T03:06:17.818Z,39.37
2022-11-07T03:11:20.336Z,29.50
2022-11-07T03:16:22.859Z,27.03
2022-11-07T03:21:25.268Z,27.23
2022-11-07T03:26:27.689Z,28.57
2022-11-07T03:31:30.076Z,27.30
2022-11-07T03:36:33.545Z,26.90
2022-11-07T03:41:35.960Z,26.73
2022-11-07T03:46:38.389Z,32.50
2022-11-07T03:51:41.211Z,26.63
2022-11-07T03:56:43.564Z,27.93
2022-11-07T04:01:46.151Z,24.90
2022-11-07T04:06:48.611Z,25.33
2022-11-07T04:12:09.672Z,25.97
2022-11-07T04:17:21.643Z,25.93
2022-11-07T04:22:24.959Z,26.20
2022-11-07T04:27:42.641Z,27.30
2022-11-07T04:32:53.641Z,30.33
2022-11-07T04:37:56.051Z,34.07
2022-11-07T04:42:58.698Z,28.07
2022-11-07T04:48:01.066Z,26.87
2022-11-07T04:53:03.485Z,24.97
2022-11-07T04:58:05.876Z,25.57
2022-11-07T05:03:09.121Z,26.83
2022-11-07T05:08:11.660Z,31.00
2022-11-07T05:13:14.308Z,36.37
2022-11-07T05:18:21.146Z,33.50
2022-11-07T05:23:23.569Z,41.20
2022-11-07T05:28:38.201Z,36.30
2022-11-07T05:33:41.781Z,35.30
2022-11-07T05:38:47.547Z,30.10
2022-11-07T05:43:50.115Z,29.67
2022-11-07T05:48:55.380Z,25.77
2022-11-07T05:54:00.698Z,40.77
2022-11-07T05:59:04.492Z,30.83
2022-11-07T06:04:07.866Z,27.70
2022-11-07T06:09:10.350Z,24.10
2022-11-07T06:14:12.835Z,26.20
2022-11-07T06:19:15.230Z,22.57
2022-11-07T06:24:17.649Z,24.33
2022-11-07T06:29:20.066Z,24.63
2022-11-07T06:34:22.653Z,24.57
2022-11-07T06:39:25.018Z,23.53
2022-11-07T06:44:27.478Z,23.90
2022-11-07T06:49:29.922Z,21.70
2022-11-07T06:54:32.610Z,24.30
2022-11-07T06:59:35.210Z,23.27
2022-11-07T07:04:37.571Z,20.23
2022-11-07T07:09:39.931Z,22.80
2022-11-07T07:14:42.455Z,19.63
2022-11-07T07:19:44.875Z,23.13
2022-11-07T07:24:50.870Z,24.63
2022-11-07T07:29:54.642Z,19.80
2022-11-07T07:34:57.043Z,21.87
2022-11-07T07:39:59.420Z,18.67
2022-11-07T07:45:01.838Z,19.67
2022-11-07T07:50:05.857Z,16.97
2022-11-07T07:55:10.423Z,14.93
2022-11-07T08:00:13.509Z,15.17
2022-11-07T08:05:16.424Z,14.20
2022-11-07T08:10:40.821Z,13.63
2022-11-07T08:15:42.008Z,13.33
2022-11-07T08:20:44.415Z,13.20
2022-11-07T08:25:55.564Z,12.20
2022-11-07T08:31:06.775Z,11.00
2022-11-07T08:36:09.821Z,9.57
2022-11-07T08:41:12.306Z,9.37
2022-11-07T08:46:15.250Z,11.63
2022-11-07T08:51:17.915Z,8.40
2022-11-07T08:56:20.593Z,8.80
2022-11-07T09:01:23.116Z,8.47
2022-11-07T09:06:25.618Z,8.13
2022-11-07T09:11:28.635Z,7.73
2022-11-07T09:16:30.995Z,8.57
2022-11-07T09:21:33.399Z,7.17
2022-11-07T09:26:35.969Z,7.30
2022-11-07T09:31:38.451Z,9.48
2022-11-07T09:36:42.166Z,8.20
2022-11-07T09:41:53.124Z,7.63
2022-11-07T09:47:19.374Z,7.63
2022-11-07T09:52:38.623Z,7.10
2022-11-07T09:57:42.775Z,7.37
2022-11-07T10:03:14.087Z,7.17
2022-11-07T10:08:29.663Z,7.13
2022-11-07T10:14:05.129Z,6.77
2022-11-07T10:19:13.891Z,6.83
2022-11-07T10:24:31.646Z,6.90
2022-11-07T10:29:47.035Z,7.40
2022-11-07T10:35:28.411Z,7.10
2022-11-07T10:40:40.244Z,6.90
2022-11-07T10:45:42.855Z,10.93
2022-11-07T10:50:53.123Z,8.37
2022-11-07T10:55:56.500Z,7.70
2022-11-07T11:01:10.046Z,7.70
2022-11-07T11:06:18.486Z,7.73
2022-11-07T11:11:29.366Z,6.80
2022-11-07T11:16:36.399Z,5.97
2022-11-07T11:21:41.333Z,6.80
2022-11-07T11:26:45.108Z,6.43
2022-11-07T11:31:52.348Z,6.60
2022-11-07T11:37:01.845Z,6.43
2022-11-07T11:42:05.438Z,5.73
2022-11-07T11:47:28.085Z,6.10
2022-11-07T11:52:34.634Z,5.83
2022-11-07T11:58:01.463Z,29.40
2022-11-07T12:03:24.925Z,7.53
2022-11-07T12:08:39.279Z,27.87
2022-11-07T12:14:03.292Z,10.57
2022-11-07T12:19:30.454Z,8.63
2022-11-07T12:24:45.066Z,8.83
2022-11-07T12:30:05.698Z,7.10
2022-11-07T12:35:28.203Z,6.30
2022-11-07T12:40:58.074Z,6.87
2022-11-07T12:46:30.120Z,5.37
2022-11-07T12:51:51.547Z,4.83
2022-11-07T12:56:56.315Z,4.97
2022-11-07T13:02:36.543Z,4.60
2022-11-07T13:08:08.664Z,4.97
2022-11-07T13:13:48.767Z,4.70
2022-11-07T13:18:51.314Z,4.53
2022-11-07T13:23:53.858Z,4.53
2022-11-07T13:29:01.352Z,4.80
2022-11-07T13:34:11.263Z,5.03
2022-11-07T13:39:14.641Z,5.90
2022-11-07T13:44:28.250Z,4.43
2022-11-07T13:49:55.848Z,4.70
2022-11-07T13:55:25.016Z,4.87
2022-11-07T14:00:29.284Z,12.43
2022-11-07T14:05:36.505Z,6.80
2022-11-07T14:16:32.116Z,14.83
2022-11-07T14:21:36.831Z,5.30
2022-11-07T14:26:43.693Z,5.87
2022-11-07T14:31:53.912Z,5.57
2022-11-07T14:37:06.851Z,5.93
2022-11-07T14:42:17.313Z,7.03
2022-11-07T14:47:27.854Z,6.67
2022-11-07T14:52:49.037Z,7.07
2022-11-07T14:57:53.954Z,6.57
2022-11-07T15:02:58.135Z,7.57
2022-11-07T15:08:00.701Z,6.70
2022-11-07T15:52:36.271Z,11.50
2022-11-07T15:57:39.537Z,15.90
2022-11-07T16:02:59.179Z,25.00
2022-11-07T16:08:02.631Z,30.27
2022-11-07T16:13:05.316Z,13.33
2022-11-07T16:18:17.918Z,10.83
2022-11-07T16:23:20.761Z,10.53
2022-11-07T16:28:34.310Z,10.60
2022-11-07T16:33:36.720Z,82.83
2022-11-07T16:38:39.163Z,10.87
2022-11-07T16:43:41.641Z,23.47
2022-11-07T16:48:45.846Z,9.33
2022-11-07T16:53:48.749Z,7.67
2022-11-07T16:58:54.624Z,10.40
2022-11-07T17:03:57.077Z,9.87
2022-11-07T17:09:08.673Z,9.20
2022-11-07T17:14:12.990Z,12.67
2022-11-07T17:19:15.615Z,15.33
2022-11-07T17:24:18.020Z,14.50
2022-11-07T17:29:20.393Z,17.60
2022-11-07T17:34:22.952Z,13.07
2022-11-07T17:39:25.443Z,13.43
2022-11-07T17:44:28.135Z,12.33
2022-11-07T17:49:30.651Z,22.73
2022-11-07T17:54:33.092Z,16.40
2022-11-07T17:59:35.474Z,19.53
2022-11-07T18:04:37.880Z,13.53
2022-11-07T18:09:41.590Z,16.23
2022-11-07T18:14:43.960Z,13.57
2022-11-07T18:19:47.908Z,13.57
2022-11-07T18:24:50.278Z,12.53
2022-11-07T18:29:52.943Z,13.57
2022-11-07T18:34:55.349Z,14.93
2022-11-07T18:39:57.739Z,12.53
2022-11-07T18:45:00.177Z,13.30
2022-11-07T18:50:02.688Z,13.23
2022-11-07T18:55:05.585Z,16.10
2022-11-07T19:00:13.475Z,22.37
2022-11-07T19:05:17.540Z,19.00
2022-11-07T19:27:14.573Z,28.23
2022-11-07T19:32:16.978Z,30.63
2022-11-07T19:37:19.328Z,21.13
2022-11-07T19:42:26.761Z,25.40
2022-11-07T19:47:30.966Z,16.10
2022-11-07T19:52:33.618Z,14.90
2022-11-07T19:57:36.107Z,13.57
2022-11-07T20:02:43.977Z,40.37
2022-11-07T20:07:50.285Z,18.23
2022-11-07T20:12:56.775Z,20.63
2022-11-07T20:17:59.286Z,13.63
2022-11-07T20:23:01.636Z,13.87
2022-11-07T20:28:04.067Z,13.37
2022-11-07T20:33:06.937Z,20.87
2022-11-07T20:38:09.256Z,11.93
2022-11-07T20:43:12.152Z,11.97
2022-11-07T20:48:14.949Z,15.67
2022-11-07T20:53:17.988Z,15.27
2022-11-07T20:58:20.546Z,12.23
2022-11-07T21:03:22.862Z,11.63
2022-11-07T21:08:25.580Z,11.17
2022-11-07T21:13:27.832Z,11.50
2022-11-07T21:18:30.793Z,12.33
2022-11-07T21:23:33.489Z,12.70
2022-11-07T21:28:36.113Z,11.57
2022-11-07T21:33:39.180Z,11.80
2022-11-07T21:38:41.723Z,10.67
2022-11-07T21:43:44.391Z,10.97
2022-11-07T21:48:47.286Z,11.63
2022-11-07T21:53:50.025Z,10.90
2022-11-07T21:58:54.669Z,10.80
2022-11-07T22:04:06.938Z,10.50
2022-11-07T22:09:12.811Z,10.27
2022-11-07T22:14:17.483Z,8.83
2022-11-07T22:19:20.262Z,9.57
2022-11-07T22:24:26.002Z,10.13
2022-11-07T22:29:28.505Z,9.40
2022-11-07T22:34:31.049Z,8.87
2022-11-07T22:39:33.363Z,8.70
2022-11-07T22:44:35.689Z,8.43
2022-11-07T22:49:38.030Z,8.27
2022-11-07T22:54:41.003Z,7.73
2022-11-07T22:59:43.359Z,7.93
2022-11-07T23:04:45.732Z,7.83
2022-11-07T23:09:48.086Z,7.90
2022-11-07T23:14:50.358Z,7.30
2022-11-07T23:19:54.033Z,6.77
2022-11-07T23:24:56.365Z,6.53
2022-11-07T23:29:58.678Z,6.10
2022-11-07T23:35:00.979Z,5.97
2022-11-07T23:40:03.415Z,5.63
2022-11-07T23:45:24.989Z,5.90
